Time;durP1;ratioP1;P1;durP2;ratioP2;P2;SDS_P1;SDS_P2;PMS_P1;PMS_P2;Temp;Humidity;BMP_temperature;BMP_pressure;BME280_temperature;BME280_humidity;BME280_pressure;Samples;Min_cycle;Max_cycle;Signal;HPM_P1;HPM_P2
2022/01/30 00:01:53;;;;;;;32.30;12.18;;;;;;;-5.17;100.00;98198.31;5053359;28;20040;-63
2022/01/30 00:04:18;;;;;;;27.80;10.65;;;;;;;-5.19;100.00;98193.13;5069585;28;20408;-63
2022/01/30 00:06:44;;;;;;;32.45;14.48;;;;;;;-5.23;100.00;98188.09;5036313;28;20059;-63
2022/01/30 00:09:17;;;;;;;30.00;11.80;;;;;;;-5.27;100.00;98197.97;5036000;28;20105;-63
2022/01/30 00:11:47;;;;;;;30.23;11.57;;;;;;;-5.43;100.00;98176.13;5052782;28;20048;-63
2022/01/30 00:14:16;;;;;;;27.48;11.20;;;;;;;-5.31;100.00;98185.09;5053349;28;20045;-63
2022/01/30 00:16:42;;;;;;;32.63;13.55;;;;;;;-5.34;100.00;98180.81;5052747;28;20052;-62
2022/01/30 00:19:26;;;;;;;26.63;11.70;;;;;;;-5.31;100.00;98178.03;5052565;28;20052;-63
2022/01/30 00:22:02;;;;;;;27.05;11.43;;;;;;;-5.32;100.00;98178.97;5069788;28;20049;-63
2022/01/30 00:24:43;;;;;;;27.42;12.65;;;;;;;-5.32;100.00;98175.50;5035880;28;20047;-62
2022/01/30 00:27:16;;;;;;;29.52;12.40;;;;;;;-5.33;100.00;98172.00;5052468;28;20158;-63
2022/01/30 00:29:42;;;;;;;27.67;11.98;;;;;;;-5.29;100.00;98162.16;5053323;28;20044;-63
2022/01/30 00:32:08;;;;;;;28.02;12.48;;;;;;;-5.32;100.00;98157.91;5019283;28;20047;-63
2022/01/30 00:34:34;;;;;;;25.67;10.68;;;;;;;-5.73;100.00;98083.97;5019186;28;20107;-61
2022/01/30 00:37:03;;;;;;;34.20;13.10;;;;;;;-5.32;100.00;98146.53;5052171;28;20076;-63
2022/01/30 00:39:29;;;;;;;27.65;11.65;;;;;;;-5.32;100.00;98142.09;5052546;28;20049;-63
2022/01/30 00:41:55;;;;;;;29.83;12.70;;;;;;;-5.50;100.00;98115.06;5035578;28;20036;-63
2022/01/30 00:44:22;;;;;;;25.42;11.07;;;;;;;-5.31;100.00;98141.16;5035630;28;20074;-63
2022/01/30 00:46:48;;;;;;;27.52;10.63;;;;;;;-5.32;100.00;98128.94;5035815;28;20073;-63
2022/01/30 00:49:14;;;;;;;28.40;11.50;;;;;;;-5.30;100.00;98134.97;5051982;28;20041;-63
2022/01/30 00:51:40;;;;;;;29.90;11.05;;;;;;;-5.34;100.00;98129.03;5035722;28;20055;-62
2022/01/30 00:54:06;;;;;;;24.40;10.00;;;;;;;-5.28;100.00;98119.91;5052349;28;20052;-63
2022/01/30 00:56:32;;;;;;;25.27;10.05;;;;;;;-5.30;100.00;98106.00;5052020;28;20049;-63
2022/01/30 00:58:57;;;;;;;23.45;9.85;;;;;;;-5.28;100.00;98106.75;5052401;28;20047;-63
2022/01/30 01:01:23;;;;;;;21.50;8.93;;;;;;;-5.34;100.00;98086.91;5035592;28;20056;-63
2022/01/30 01:03:49;;;;;;;22.33;8.70;;;;;;;-5.23;100.00;98109.97;5068769;28;20114;-63
2022/01/30 01:06:15;;;;;;;19.08;7.10;;;;;;;-5.22;100.00;98085.31;5051726;28;20053;-63
2022/01/30 01:08:55;;;;;;;19.85;8.23;;;;;;;-5.23;99.59;98083.63;5018862;28;20124;-63
2022/01/30 01:24:45;;;;;;;18.25;7.28;;;;;;;-5.25;98.52;98064.44;5054914;28;20084;-63
2022/01/30 01:27:11;;;;;;;18.38;7.10;;;;;;;-5.28;98.46;98054.06;5035383;28;20072;-63
2022/01/30 01:29:37;;;;;;;18.77;7.97;;;;;;;-5.26;98.79;98052.22;5051788;28;20484;-62
2022/01/30 01:32:04;;;;;;;20.67;9.25;;;;;;;-5.35;99.10;98058.00;5035396;28;20163;-63
2022/01/30 01:34:36;;;;;;;22.08;8.18;;;;;;;-5.35;99.87;98058.00;5051985;28;20044;-63
2022/01/30 01:37:02;;;;;;;19.73;7.97;;;;;;;-5.67;100.00;98004.63;5085091;28;20045;-64
2022/01/30 01:39:28;;;;;;;23.70;9.60;;;;;;;-5.39;99.70;98053.88;5035056;28;20143;-62
2022/01/30 01:41:54;;;;;;;21.95;9.18;;;;;;;-5.36;100.00;98053.69;5035191;28;20036;-62
2022/01/30 01:47:31;;;;;;;26.10;9.57;;;;;;;-5.35;100.00;98043.06;4991394;28;20081;-62
2022/01/30 01:49:56;;;;;;;;;;;;;;;-5.37;100.00;98049.38;5029078;28;20159;-62
2022/01/30 01:52:24;;;;;;;24.92;10.02;;;;;;;-5.46;100.00;98039.38;5072180;28;19978;-63
2022/01/30 01:54:57;;;;;;;22.15;8.98;;;;;;;-5.42;100.00;98040.88;5072351;28;20037;-61
2022/01/30 01:57:25;;;;;;;26.23;11.25;;;;;;;-5.44;100.00;98037.50;5055374;28;20045;-62
2022/01/30 02:00:05;;;;;;;25.67;10.20;;;;;;;-5.45;100.00;98027.91;5025851;28;20177;-63
2022/01/30 02:02:40;;;;;;;27.00;12.40;;;;;;;-5.44;100.00;98026.97;5056433;28;20037;-63
2022/01/30 02:05:08;;;;;;;26.10;10.77;;;;;;;-5.49;100.00;98013.22;5038226;28;20048;-63
2022/01/30 02:10:37;;;;;;;35.67;11.32;;;;;;;-5.56;100.00;98025.91;5072123;28;20055;-63
2022/01/30 02:13:37;;;;;;;31.33;13.88;;;;;;;-5.72;100.00;97991.75;5040903;28;20044;-62
2022/01/30 02:27:22;;;;;;;29.83;10.60;;;;;;;-5.47;100.00;98006.09;5037879;28;20052;-62
2022/01/30 02:29:48;;;;;;;27.13;10.88;;;;;;;-5.53;100.00;97977.50;5070918;28;20048;-63
2022/01/30 02:32:14;;;;;;;19.40;9.23;;;;;;;-5.59;100.00;97960.31;5054598;28;20044;-62
2022/01/30 02:34:40;;;;;;;20.25;8.82;;;;;;;-5.47;100.00;97979.78;5038104;28;20097;-63
2022/01/30 02:37:06;;;;;;;23.88;10.35;;;;;;;-5.50;100.00;97977.31;5021437;28;20041;-63
2022/01/30 02:39:32;;;;;;;20.63;10.48;;;;;;;-5.51;100.00;97973.84;5021306;28;20052;-61
2022/01/30 02:41:59;;;;;;;21.70;11.27;;;;;;;-5.53;100.00;97966.97;5054912;28;20044;-63
2022/01/30 02:44:32;;;;;;;17.02;5.72;;;;;;;-5.56;99.41;97952.19;5070901;28;20075;-62
2022/01/30 02:47:02;;;;;;;11.60;4.75;;;;;;;-5.54;96.62;97946.84;5054500;28;20131;-63
2022/01/30 02:49:42;;;;;;;12.23;4.45;;;;;;;-5.47;96.11;97948.19;5038317;28;20535;-62
2022/01/30 02:52:09;;;;;;;10.90;3.72;;;;;;;-5.57;95.63;97925.03;5053919;28;20044;-61
2022/01/30 02:54:37;;;;;;;11.02;4.40;;;;;;;-5.43;95.17;97955.78;5071844;28;20044;-62
2022/01/30 02:57:05;;;;;;;10.60;4.47;;;;;;;-5.44;95.93;97951.47;5055920;28;20066;-62
2022/01/30 02:59:31;;;;;;;13.02;5.20;;;;;;;-5.47;96.12;97942.91;5039127;28;20496;-66
2022/01/30 03:01:56;;;;;;;14.07;6.13;;;;;;;-5.46;97.91;97960.41;5038307;28;20048;-62
2022/01/30 03:04:22;;;;;;;19.92;9.10;;;;;;;-5.53;99.59;97932.75;5037291;28;20036;-63
2022/01/30 03:06:48;;;;;;;25.70;9.70;;;;;;;-5.61;100.00;97923.53;5037605;28;20139;-63
2022/01/30 03:09:39;;;;;;;24.00;8.95;;;;;;;-5.50;100.00;97948.38;5066639;28;20048;-63
2022/01/30 03:12:06;;;;;;;14.55;7.20;;;;;;;-5.49;98.65;97934.25;5037379;28;20503;-63
2022/01/30 03:14:33;;;;;;;15.65;6.13;;;;;;;-5.47;98.06;97940.28;5054005;28;20116;-63
2022/01/30 03:17:00;;;;;;;15.30;6.45;;;;;;;-5.63;97.64;97907.00;5053978;28;20067;-63
2022/01/30 03:19:26;;;;;;;16.40;6.57;;;;;;;-5.53;97.60;97916.97;5037070;28;20124;-63
2022/01/30 03:21:52;;;;;;;13.80;5.28;;;;;;;-5.47;98.00;97935.00;5070570;28;20094;-63
2022/01/30 03:24:18;;;;;;;15.52;5.57;;;;;;;-5.46;97.89;97918.28;5053327;28;20491;-63
2022/01/30 03:26:44;;;;;;;13.25;5.38;;;;;;;-5.45;98.34;97915.53;5037011;28;20053;-62
2022/01/30 03:29:31;;;;;;;13.90;5.93;;;;;;;-5.48;97.91;97914.91;5055782;28;20070;-63
2022/01/30 03:31:57;;;;;;;12.20;5.38;;;;;;;-5.46;98.17;97913.00;5037010;28;20131;-62
2022/01/30 03:34:23;;;;;;;12.23;5.13;;;;;;;-5.42;97.25;97915.34;5036598;28;20389;-62
2022/01/30 03:36:51;;;;;;;13.75;4.72;;;;;;;-5.40;97.60;97907.38;5053222;28;20420;-62
2022/01/30 03:39:18;;;;;;;13.45;4.85;;;;;;;-5.59;98.13;97876.06;5036704;28;20040;-63
2022/01/30 03:41:44;;;;;;;13.57;4.50;;;;;;;-5.45;98.14;97891.84;5052638;28;20044;-61
2022/01/30 03:44:13;;;;;;;10.68;4.13;;;;;;;-5.38;97.89;97900.22;5053388;28;20062;-61
2022/01/30 03:46:39;;;;;;;12.27;5.03;;;;;;;-5.43;97.86;97891.75;5053259;28;20055;-64
2022/01/30 03:49:05;;;;;;;10.68;4.38;;;;;;;-5.35;97.61;97892.13;5069662;28;20102;-64
2022/01/30 03:51:37;;;;;;;11.63;4.57;;;;;;;-5.37;97.58;97901.91;5007988;28;20048;-63
2022/01/30 03:54:16;;;;;;;12.15;4.50;;;;;;;-5.38;98.03;97879.16;5055320;28;20044;-64
2022/01/30 03:56:42;;;;;;;11.70;4.93;;;;;;;-5.41;97.94;97885.47;5055787;28;20411;-63
2022/01/30 03:59:08;;;;;;;10.55;4.70;;;;;;;-5.40;97.99;97888.94;5038090;28;20578;-63
2022/01/30 04:01:34;;;;;;;12.27;4.60;;;;;;;-5.41;98.04;97881.97;5036325;28;20044;-63
2022/01/30 04:04:00;;;;;;;9.48;4.15;;;;;;;-5.44;97.53;97869.84;5035820;28;20036;-63
2022/01/30 04:06:27;;;;;;;10.85;4.95;;;;;;;-5.45;97.66;97862.88;5036124;28;20092;-63
2022/01/30 04:08:54;;;;;;;10.50;4.22;;;;;;;-5.42;97.50;97872.38;5036460;28;20040;-64
2022/01/30 04:11:39;;;;;;;9.32;3.47;;;;;;;-5.39;97.57;97867.78;5038381;28;20055;-62
2022/01/30 04:14:25;;;;;;;14.07;5.13;;;;;;;-5.43;98.02;97860.16;5055600;28;20040;-62
2022/01/30 04:17:20;;;;;;;11.77;5.00;;;;;;;-5.39;97.80;97856.41;5065694;28;20415;-64
2022/01/30 04:20:07;;;;;;;11.77;4.60;;;;;;;-5.39;97.67;97857.25;5040639;28;20143;-65
2022/01/30 04:23:08;;;;;;;13.35;4.68;;;;;;;-5.42;98.20;97846.91;5069087;28;20044;-62
2022/01/30 04:25:52;;;;;;;10.93;4.20;;;;;;;-5.36;98.07;97848.31;5085739;28;20384;-64
2022/01/30 04:28:41;;;;;;;10.48;4.57;;;;;;;-5.47;98.13;97827.09;5041251;28;20056;-63
2022/01/30 04:31:27;;;;;;;11.13;4.25;;;;;;;-5.41;98.60;97845.09;5068745;28;20056;-63
2022/01/30 04:34:12;;;;;;;10.45;4.50;;;;;;;-5.42;97.67;97846.06;5038489;28;20051;-67
2022/01/30 04:58:19;;;;;;;11.23;4.35;;;;;;;-5.37;97.16;97801.88;5055903;28;20053;-63
2022/01/30 05:01:11;;;;;;;10.57;4.30;;;;;;;-5.36;97.68;97814.09;5040868;28;20040;-63
2022/01/30 05:06:32;;;;;;;11.45;4.15;;;;;;;-5.38;97.84;97805.41;5069007;28;20048;-64
2022/01/30 05:09:09;;;;;;;13.35;5.22;;;;;;;-5.38;98.66;97805.41;5053362;28;20076;-64
2022/01/30 05:12:12;;;;;;;11.00;3.78;;;;;;;-5.43;98.00;97797.81;4987773;28;20393;-64
2022/01/30 05:14:58;;;;;;;10.60;4.57;;;;;;;-5.36;98.17;97801.75;5008553;28;20079;-64
2022/01/30 05:17:43;;;;;;;11.23;5.00;;;;;;;-5.36;98.12;97798.28;5054575;28;20044;-63
2022/01/30 05:20:13;;;;;;;;;;;;;;;-5.38;98.33;97800.16;5052813;28;20051;-63
2022/01/30 05:22:51;;;;;;;10.80;4.53;;;;;;;-5.32;98.15;97804.19;5038090;28;20027;-62
2022/01/30 05:25:34;;;;;;;10.65;4.38;;;;;;;-5.35;97.88;97805.22;5057528;28;20045;-64
2022/01/30 05:28:08;;;;;;;10.13;4.30;;;;;;;-5.36;97.73;97798.28;5041198;28;20045;-64
2022/01/30 05:30:50;;;;;;;10.23;4.10;;;;;;;-5.37;97.44;97796.59;5072262;28;20048;-63
2022/01/30 05:33:42;;;;;;;11.27;3.53;;;;;;;-5.49;96.73;97773.66;5052649;28;20535;-63
2022/01/30 05:36:38;;;;;;;10.35;3.88;;;;;;;-5.35;96.73;97781.53;5010227;28;20136;-63
2022/01/30 05:39:39;;;;;;;10.48;4.07;;;;;;;-5.36;96.22;97771.94;4990752;28;20417;-63
2022/01/30 05:42:29;;;;;;;9.32;3.40;;;;;;;-5.29;96.32;97783.78;5041790;28;20051;-63
2022/01/30 05:45:52;;;;;;;7.88;2.80;;;;;;;-5.31;96.54;97764.59;5057603;28;20040;-63
2022/01/30 05:48:24;;;;;;;8.25;3.50;;;;;;;-5.33;96.92;97771.75;5061248;28;20048;-63
2022/01/30 05:50:58;;;;;;;8.95;3.83;;;;;;;-5.32;97.50;97776.06;5024279;28;20459;-63
2022/01/30 05:53:36;;;;;;;8.65;3.75;;;;;;;-5.32;97.25;97762.91;5040259;28;20043;-63
2022/01/30 05:56:09;;;;;;;8.80;3.60;;;;;;;-5.47;96.00;97742.84;5038923;28;20048;-63
2022/01/30 05:58:35;;;;;;;7.80;3.10;;;;;;;-5.43;95.80;97749.59;5055609;28;20349;-62
2022/01/30 06:01:19;;;;;;;8.07;3.22;;;;;;;-5.32;96.47;97770.81;5042777;28;20048;-63
2022/01/30 06:03:45;;;;;;;9.23;2.97;;;;;;;-5.25;97.04;97773.91;5038557;28;20068;-63
2022/01/30 06:06:11;;;;;;;8.43;3.13;;;;;;;-5.29;95.91;97773.25;5021516;28;20041;-63
2022/01/30 06:08:46;;;;;;;7.80;2.75;;;;;;;-5.29;95.76;97760.09;5054534;28;20114;-63
2022/01/30 06:11:13;;;;;;;8.68;3.13;;;;;;;-5.26;95.79;97759.88;5039812;28;20048;-64
2022/01/30 06:13:39;;;;;;;8.32;2.95;;;;;;;-5.26;95.99;97762.53;5054483;28;20126;-64
2022/01/30 06:16:05;;;;;;;8.85;3.47;;;;;;;-5.26;96.95;97751.16;5054587;28;20052;-64
2022/01/30 06:18:31;;;;;;;7.65;3.00;;;;;;;-5.20;96.94;97766.53;5037801;28;20125;-64
2022/01/30 06:21:06;;;;;;;8.05;3.33;;;;;;;-5.29;96.81;97736.38;5040584;28;20044;-64
2022/01/30 06:23:48;;;;;;;9.65;4.10;;;;;;;-5.26;96.95;97770.41;5041907;28;20057;-64
2022/01/30 06:26:23;;;;;;;8.25;3.15;;;;;;;-5.30;96.16;97747.88;5072332;28;20395;-64
2022/01/30 06:29:09;;;;;;;8.35;2.40;;;;;;;-5.28;96.10;97748.59;5026949;28;20480;-65
2022/01/30 06:31:53;;;;;;;9.73;3.05;;;;;;;-5.26;95.77;97757.25;5042788;28;20197;-64
2022/01/30 06:34:39;;;;;;;7.35;2.40;;;;;;;-5.23;95.82;97772.00;5012143;28;20049;-64
2022/01/30 06:37:43;;;;;;;7.10;2.60;;;;;;;-5.25;95.32;97764.19;5058395;28;20404;-64
2022/01/30 06:40:38;;;;;;;7.15;1.98;;;;;;;-5.17;93.89;97756.63;5040831;28;20060;-64
2022/01/30 06:43:27;;;;;;;6.85;2.00;;;;;;;-5.18;94.18;97744.41;5006881;28;20079;-64
2022/01/30 06:46:16;;;;;;;7.60;2.03;;;;;;;-5.15;94.40;97749.50;5020355;28;20060;-64
2022/01/30 06:49:02;;;;;;;7.00;1.92;;;;;;;-5.06;94.40;97747.19;5087794;28;20044;-70
2022/01/30 06:52:00;;;;;;;7.32;2.20;;;;;;;-5.11;94.00;97760.66;5054475;28;20063;-67
2022/01/30 06:54:52;;;;;;;6.63;2.00;;;;;;;-5.13;94.77;97731.78;5009440;28;20064;-66
2022/01/30 06:57:41;;;;;;;;;;;;;;;-5.06;94.91;97739.28;5024803;28;20049;-67
2022/01/30 07:00:30;;;;;;;7.25;2.17;;;;;;;-5.01;94.76;97745.09;4986095;28;19921;-65
2022/01/30 07:03:14;;;;;;;7.25;2.22;;;;;;;-5.13;94.83;97725.69;5024181;28;20465;-66
2022/01/30 07:06:15;;;;;;;8.35;2.58;;;;;;;-5.04;94.71;97740.03;5006576;28;20065;-65
2022/01/30 07:08:41;;;;;;;7.82;2.65;;;;;;;-5.05;95.00;97733.91;5007633;28;20502;-65
2022/01/30 07:11:07;;;;;;;8.15;2.83;;;;;;;-5.09;96.00;97733.25;5024378;28;20041;-65
2022/01/30 07:13:33;;;;;;;7.70;2.40;;;;;;;-5.12;96.48;97733.50;5025947;28;20801;-64
2022/01/30 07:15:58;;;;;;;9.00;3.15;;;;;;;-5.12;96.59;97737.88;5024289;28;20048;-65
2022/01/30 07:18:24;;;;;;;8.63;3.03;;;;;;;-5.15;96.56;97728.41;5009415;28;20132;-65
2022/01/30 07:20:51;;;;;;;8.15;3.03;;;;;;;-5.12;96.84;97738.75;5025591;28;20089;-65
2022/01/30 07:23:17;;;;;;;7.13;2.15;;;;;;;-5.10;97.49;97722.84;5043437;28;20049;-65
2022/01/30 07:25:44;;;;;;;7.50;2.83;;;;;;;-5.09;95.50;97743.81;5023187;28;20104;-65
2022/01/30 07:28:10;;;;;;;7.57;2.42;;;;;;;-5.27;95.35;97696.78;5007985;28;20050;-65
2022/01/30 07:30:36;;;;;;;8.88;2.80;;;;;;;-5.17;95.05;97724.19;5009562;28;20045;-64
2022/01/30 07:33:04;;;;;;;9.00;2.75;;;;;;;-5.10;95.19;97726.31;5008819;28;20049;-65
2022/01/30 07:35:30;;;;;;;7.93;2.60;;;;;;;-4.98;94.72;97729.91;5007250;28;20092;-64
2022/01/30 07:37:55;;;;;;;8.32;2.63;;;;;;;-4.93;94.13;97719.94;4991385;28;20065;-65
2022/01/30 07:40:21;;;;;;;10.05;2.80;;;;;;;-4.89;92.53;97728.47;5022412;28;20483;-68
2022/01/30 07:42:47;;;;;;;7.93;2.30;;;;;;;-4.89;91.04;97717.94;5015720;28;20140;-66
2022/01/30 07:45:16;;;;;;;6.97;2.17;;;;;;;-4.86;90.01;97712.47;4997084;28;20052;-65
2022/01/30 07:47:41;;;;;;;7.95;2.42;;;;;;;-4.89;89.37;97713.50;4991370;28;20045;-67
2022/01/30 07:50:08;;;;;;;7.93;2.58;;;;;;;-4.85;89.66;97708.88;4999019;28;20107;-64
2022/01/30 07:52:34;;;;;;;9.43;2.78;;;;;;;-4.87;89.50;97700.22;5041759;28;20125;-66
2022/01/30 07:55:01;;;;;;;8.02;2.88;;;;;;;-4.83;89.40;97722.78;4993316;28;20109;-65
2022/01/30 07:57:26;;;;;;;9.13;3.47;;;;;;;-4.88;90.32;97703.81;5008145;28;20049;-66
2022/01/30 07:59:53;;;;;;;9.30;3.15;;;;;;;-4.95;90.56;97703.38;5007623;28;20089;-65
2022/01/30 08:02:18;;;;;;;8.05;2.85;;;;;;;-4.86;91.24;97701.94;4989994;28;20049;-65
2022/01/30 08:04:44;;;;;;;8.82;3.63;;;;;;;-4.95;90.51;97690.19;4985233;28;20049;-65
2022/01/30 08:07:10;;;;;;;9.93;3.50;;;;;;;-4.78;90.50;97680.31;5009255;28;20041;-66
2022/01/30 08:09:37;;;;;;;9.98;3.83;;;;;;;-4.58;89.64;97694.75;4992149;28;20128;-65
2022/01/30 08:12:03;;;;;;;8.73;3.47;;;;;;;-4.69;89.07;97696.34;5015571;28;20520;-65
2022/01/30 08:14:29;;;;;;;10.50;3.10;;;;;;;-4.67;89.37;97699.72;5016537;28;20124;-65
2022/01/30 08:16:55;;;;;;;12.48;3.63;;;;;;;-4.76;89.68;97702.97;5007641;28;20133;-67
2022/01/30 08:19:23;;;;;;;9.15;3.00;;;;;;;-4.82;90.76;97703.41;5022944;28;20049;-64
2022/01/30 08:22:00;;;;;;;10.23;3.47;;;;;;;-4.83;90.99;97714.88;5000111;28;20052;-70
2022/01/30 08:24:26;;;;;;;11.25;4.20;;;;;;;-4.84;91.11;97707.94;5027088;28;20045;-67
2022/01/30 08:26:52;;;;;;;8.38;2.97;;;;;;;-4.87;89.31;97716.03;4990719;28;20426;-65
2022/01/30 08:29:18;;;;;;;7.18;2.55;;;;;;;-4.87;88.43;97716.88;5024470;28;20090;-64
2022/01/30 08:31:44;;;;;;;7.70;2.45;;;;;;;-4.85;87.98;97715.00;5012611;28;20473;-65
2022/01/30 08:34:10;;;;;;;9.40;2.70;;;;;;;-4.92;88.22;97702.34;5009897;28;20444;-64
2022/01/30 08:36:36;;;;;;;9.98;3.13;;;;;;;-4.98;89.01;97702.72;4997457;28;20152;-65
2022/01/30 08:39:02;;;;;;;9.68;3.30;;;;;;;-4.89;88.64;97699.50;5009273;28;20079;-66
2022/01/30 08:41:28;;;;;;;9.15;2.90;;;;;;;-4.83;89.07;97701.69;5008731;28;20432;-67
2022/01/30 08:43:53;;;;;;;8.60;3.13;;;;;;;-4.86;88.01;97709.84;4988220;28;20046;-64
2022/01/30 08:46:20;;;;;;;7.60;1.98;;;;;;;-4.80;87.67;97716.47;5001398;28;20041;-68
2022/01/30 08:48:46;;;;;;;7.43;2.60;;;;;;;-4.90;87.33;97684.63;5003307;28;20068;-67
2022/01/30 08:51:12;;;;;;;7.28;1.90;;;;;;;-4.88;87.65;97688.00;5044234;28;20464;-66
2022/01/30 08:53:38;;;;;;;7.13;1.23;;;;;;;-4.76;87.56;97692.44;5010124;28;20103;-68
2022/01/30 08:56:05;;;;;;;8.35;2.05;;;;;;;-4.76;87.83;97681.03;5028002;28;20042;-67
2022/01/30 08:58:32;;;;;;;6.75;1.90;;;;;;;-4.75;87.59;97683.59;5025457;28;20077;-64
2022/01/30 09:00:58;;;;;;;7.03;1.90;;;;;;;-4.77;88.06;97680.22;5018786;28;20057;-64
2022/01/30 09:03:24;;;;;;;7.65;2.10;;;;;;;-4.76;87.53;97686.31;4985202;28;20041;-64
2022/01/30 09:05:50;;;;;;;6.53;2.00;;;;;;;-4.79;87.50;97682.13;4996806;28;20183;-64
2022/01/30 09:08:16;;;;;;;6.07;1.80;;;;;;;-4.80;87.89;97688.31;5009669;28;20034;-64
2022/01/30 09:10:42;;;;;;;6.30;1.90;;;;;;;-4.83;88.16;97695.59;4995526;28;20054;-63
2022/01/30 09:13:08;;;;;;;6.35;1.98;;;;;;;-4.89;87.52;97660.81;5029098;28;20045;-64
2022/01/30 09:15:40;;;;;;;6.22;1.90;;;;;;;-4.68;87.56;97662.91;5029337;28;20054;-64
2022/01/30 09:18:10;;;;;;;5.80;1.63;;;;;;;-4.51;86.41;97680.22;5031187;28;20203;-64
2022/01/30 09:20:45;;;;;;;7.18;2.15;;;;;;;-4.45;86.59;97669.25;5043638;28;20073;-64
2022/01/30 09:23:11;;;;;;;7.57;2.08;;;;;;;-4.06;84.58;97670.00;5009211;28;20041;-64
2022/01/30 09:25:38;;;;;;;7.05;1.73;;;;;;;-3.18;80.25;97641.53;5012981;28;20140;-64
2022/01/30 09:28:04;;;;;;;5.57;1.63;;;;;;;-2.97;78.18;97649.66;4998594;28;20128;-65
2022/01/30 09:30:30;;;;;;;6.78;1.85;;;;;;;-1.92;75.96;97643.22;4997343;28;20042;-68
2022/01/30 09:32:56;;;;;;;6.13;1.80;;;;;;;0.96;62.57;97645.88;4979380;28;20045;-65
2022/01/30 09:35:22;;;;;;;6.28;2.10;;;;;;;3.71;54.58;97643.19;4995992;28;20041;-65
2022/01/30 09:37:50;;;;;;;7.25;2.75;;;;;;;4.01;50.69;97650.72;4996876;28;20111;-65
2022/01/30 09:40:17;;;;;;;7.05;2.03;;;;;;;5.15;47.92;97639.50;5013127;28;20045;-65
2022/01/30 09:42:45;;;;;;;5.90;1.85;;;;;;;5.16;47.26;97618.94;5053381;28;20251;-65
2022/01/30 09:45:15;;;;;;;7.38;2.70;;;;;;;4.72;47.33;97633.44;4998191;28;20057;-65
2022/01/30 09:47:41;;;;;;;7.88;2.40;;;;;;;3.84;48.97;97627.59;5015617;28;20049;-65
2022/01/30 09:50:08;;;;;;;7.68;2.65;;;;;;;5.06;47.63;97622.59;4997365;28;20513;-65
2022/01/30 09:52:36;;;;;;;6.18;2.13;;;;;;;4.37;47.53;97631.00;5031163;28;20046;-65
2022/01/30 09:55:04;;;;;;;7.32;2.15;;;;;;;4.08;49.46;97614.31;5001476;28;20175;-65
2022/01/30 09:57:29;;;;;;;9.57;2.80;;;;;;;5.38;47.31;97628.97;5013854;28;20053;-65
2022/01/30 09:59:56;;;;;;;8.73;2.42;;;;;;;4.59;47.54;97622.34;4994154;28;20520;-65
2022/01/30 10:02:25;;;;;;;7.78;2.72;;;;;;;3.75;48.15;97623.19;4994972;28;20712;-65
2022/01/30 10:04:52;;;;;;;7.63;2.30;;;;;;;2.53;50.36;97612.38;5027212;28;20088;-65
2022/01/30 10:07:21;;;;;;;11.00;3.08;;;;;;;0.53;57.73;97616.19;4979168;28;20091;-65
2022/01/30 10:09:49;;;;;;;7.68;2.45;;;;;;;-0.32;61.05;97605.06;4994589;28;20053;-65
2022/01/30 10:12:19;;;;;;;6.90;2.13;;;;;;;-1.07;64.37;97618.59;4980128;28;20045;-65
2022/01/30 10:15:03;;;;;;;13.05;2.95;;;;;;;-1.51;66.56;97609.88;5029968;28;20559;-65
2022/01/30 10:17:38;;;;;;;8.63;2.90;;;;;;;-1.95;68.77;97603.75;4997611;28;20493;-65
2022/01/30 10:20:13;;;;;;;7.97;2.60;;;;;;;-2.19;69.98;97618.00;4997877;28;20069;-65
2022/01/30 10:22:54;;;;;;;6.35;1.90;;;;;;;-2.34;70.65;97611.28;5028063;28;20049;-66
2022/01/30 10:25:26;;;;;;;7.40;2.30;;;;;;;-2.20;69.99;97618.09;5027827;28;20049;-65
2022/01/30 10:28:10;;;;;;;7.45;2.40;;;;;;;-2.45;70.52;97595.38;5028050;28;20104;-65
2022/01/30 10:30:42;;;;;;;5.95;1.85;;;;;;;-2.39;70.20;97597.56;5028340;28;20417;-65
2022/01/30 10:33:09;;;;;;;7.57;1.88;;;;;;;-2.46;70.90;97596.34;5012050;28;20149;-65
2022/01/30 10:35:52;;;;;;;7.63;2.45;;;;;;;-2.63;71.46;97604.75;5028711;28;20107;-65
2022/01/30 10:38:24;;;;;;;7.35;2.60;;;;;;;-2.90;72.01;97584.78;4995300;28;20062;-65
2022/01/30 10:41:15;;;;;;;7.40;2.15;;;;;;;-2.73;72.89;97596.72;4979504;28;20085;-65
2022/01/30 10:43:53;;;;;;;7.20;2.50;;;;;;;-2.81;73.27;97585.91;5011584;28;20165;-65
2022/01/30 10:46:29;;;;;;;8.82;3.15;;;;;;;-2.81;73.41;97580.59;5011707;28;20057;-65
2022/01/30 10:49:11;;;;;;;7.88;2.70;;;;;;;-2.71;72.38;97579.75;4995367;28;20096;-65
2022/01/30 10:51:38;;;;;;;8.48;2.30;;;;;;;-2.71;72.74;97555.94;4978592;28;20554;-65
2022/01/30 10:54:09;;;;;;;7.57;2.47;;;;;;;-2.68;72.88;97565.44;4978520;28;20100;-65
2022/01/30 10:56:36;;;;;;;7.78;2.38;;;;;;;-2.68;72.46;97560.16;4994761;28;20089;-65
2022/01/30 10:59:21;;;;;;;7.80;2.58;;;;;;;-2.91;72.07;97580.47;5011312;28;20493;-65
2022/01/30 11:01:51;;;;;;;7.82;2.72;;;;;;;-2.94;73.09;97554.25;4994708;28;20042;-65
2022/01/30 11:04:27;;;;;;;7.90;2.55;;;;;;;-2.83;72.71;97564.84;4994775;28;20042;-65
2022/01/30 11:06:54;;;;;;;7.05;2.70;;;;;;;-2.94;73.04;97538.41;5009454;28;20041;-65
2022/01/30 11:09:47;;;;;;;8.95;2.85;;;;;;;-3.09;73.82;97548.38;5030975;28;20053;-65
2022/01/30 11:12:12;;;;;;;7.75;2.38;;;;;;;-2.80;72.59;97551.41;5000042;28;20133;-65
2022/01/30 11:14:40;;;;;;;;;;;;;;;-2.83;73.09;97559.56;5027048;28;20132;-66
2022/01/30 11:17:09;;;;;;;6.32;2.05;;;;;;;-2.79;73.25;97552.22;4976419;28;20277;-67
2022/01/30 11:19:49;;;;;;;6.43;2.30;;;;;;;-2.89;72.86;97543.31;5009466;28;20101;-66
2022/01/30 11:22:16;;;;;;;7.70;2.53;;;;;;;-2.80;72.75;97532.88;5044718;28;20044;-66
2022/01/30 11:24:45;;;;;;;7.30;2.65;;;;;;;-2.72;72.58;97532.28;5017306;28;20041;-69
2022/01/30 11:27:15;;;;;;;7.57;2.50;;;;;;;-2.73;73.05;97536.72;5027905;28;20456;-69
2022/01/30 11:29:41;;;;;;;8.43;2.65;;;;;;;-2.82;72.93;97516.28;5002684;28;20041;-69
2022/01/30 11:32:08;;;;;;;7.90;2.80;;;;;;;-2.99;72.72;97493.00;4994673;28;20048;-66
2022/01/30 11:34:36;;;;;;;6.07;1.98;;;;;;;-2.53;72.05;97515.78;4986953;28;20049;-68
2022/01/30 11:37:03;;;;;;;8.32;2.90;;;;;;;-2.63;71.75;97506.91;5021409;28;20037;-67
2022/01/30 11:39:29;;;;;;;8.45;3.00;;;;;;;-2.66;72.02;97515.94;5004557;28;20033;-66
2022/01/30 11:42:07;;;;;;;9.38;3.20;;;;;;;-2.75;71.81;97487.56;5017847;28;20049;-66
2022/01/30 11:44:33;;;;;;;8.93;2.75;;;;;;;-2.62;72.41;97516.53;5028739;28;20053;-66
2022/01/30 11:46:59;;;;;;;9.00;2.88;;;;;;;-2.74;72.58;97487.47;5024874;28;20034;-66
2022/01/30 11:49:44;;;;;;;8.90;2.83;;;;;;;-3.04;73.02;97484.56;4991059;28;20131;-70
2022/01/30 11:52:12;;;;;;;8.40;2.53;;;;;;;-2.84;73.86;97507.66;5027194;28;20037;-72
2022/01/30 11:54:47;;;;;;;8.23;2.42;;;;;;;-2.84;73.66;97502.38;4995939;28;20467;-66
2022/01/30 11:57:22;;;;;;;9.68;3.13;;;;;;;-2.90;73.68;97502.84;4986428;28;20045;-66
2022/01/30 11:59:51;;;;;;;10.77;3.38;;;;;;;-3.15;74.71;97507.38;5005246;28;20498;-67
2022/01/30 12:02:28;;;;;;;9.93;4.20;;;;;;;-3.45;75.77;97507.94;4997081;28;20072;-67
2022/01/30 12:05:05;;;;;;;12.80;3.50;;;;;;;-3.35;75.63;97465.00;4993063;28;20057;-67
2022/01/30 12:07:40;;;;;;;;;;;;;;;-3.11;76.13;97504.50;5032451;28;20060;-68
2022/01/30 12:10:30;;;;;;;10.52;3.65;;;;;;;-3.23;75.98;97498.38;5006294;28;19921;-67
2022/01/30 12:12:58;;;;;;;10.52;3.50;;;;;;;-3.30;76.22;97495.38;4996798;28;20041;-67
2022/01/30 12:15:37;;;;;;;14.00;2.63;;;;;;;-3.28;76.67;97511.94;4996878;28;20049;-66
2022/01/30 12:18:05;;;;;;;11.52;4.13;;;;;;;-3.59;77.51;97499.41;5012916;28;20306;-66
2022/01/30 12:20:56;;;;;;;9.90;3.60;;;;;;;-3.47;77.58;97509.88;5012734;28;20045;-66
2022/01/30 12:23:27;;;;;;;9.55;3.50;;;;;;;-3.60;78.24;97488.00;4995693;28;20049;-66
2022/01/30 12:25:55;;;;;;;9.00;3.20;;;;;;;-3.49;78.47;97500.38;5029652;28;20041;-66
2022/01/30 12:28:41;;;;;;;11.93;3.80;;;;;;;-3.51;78.08;97520.78;5012779;28;20128;-66
2022/01/30 12:31:26;;;;;;;9.30;4.30;;;;;;;-3.56;78.37;97488.59;4995974;28;20086;-66
2022/01/30 12:34:03;;;;;;;8.43;3.33;;;;;;;-3.50;78.58;97494.28;5013201;28;20189;-66
2022/01/30 12:36:30;;;;;;;9.48;3.80;;;;;;;-3.62;78.86;97516.31;5011799;28;20045;-67
2022/01/30 12:39:03;;;;;;;8.85;4.03;;;;;;;-3.77;79.60;97499.81;4992407;28;20099;-66
2022/01/30 12:41:30;;;;;;;8.43;2.85;;;;;;;-3.56;79.84;97501.81;5021264;28;20053;-66
2022/01/30 12:44:04;;;;;;;10.10;3.50;;;;;;;-3.66;80.16;97515.72;4996240;28;20140;-67
2022/01/30 12:46:39;;;;;;;8.40;2.83;;;;;;;-3.63;79.98;97509.34;5029320;28;20095;-58
2022/01/30 12:49:09;;;;;;;8.90;3.22;;;;;;;-3.66;80.19;97515.72;5029101;28;20053;-65